createdAt,value
2023-05-19T00:01:48.287Z,7.55
2023-05-19T00:04:15.629Z,8.90
2023-05-19T00:06:42.719Z,8.05
2023-05-19T00:09:10.188Z,11.32
2023-05-19T00:11:38.090Z,7.78
2023-05-19T00:14:06.770Z,7.50
2023-05-19T00:16:34.126Z,8.00
2023-05-19T00:19:02.628Z,10.52
2023-05-19T00:21:29.877Z,7.13
2023-05-19T00:23:56.959Z,8.65
2023-05-19T00:26:24.206Z,7.35
2023-05-19T00:28:51.136Z,7.20
2023-05-19T00:31:18.027Z,8.52
2023-05-19T00:33:44.906Z,9.38
2023-05-19T00:36:12.161Z,6.85
2023-05-19T00:38:39.039Z,7.88
2023-05-19T00:41:06.434Z,8.60
2023-05-19T00:43:34.474Z,11.27
2023-05-19T00:46:01.526Z,7.45
2023-05-19T00:48:28.396Z,8.40
2023-05-19T00:50:56.115Z,5.85
2023-05-19T00:53:23.200Z,8.80
2023-05-19T00:55:50.552Z,9.02
2023-05-19T00:58:18.394Z,6.40
2023-05-19T01:00:45.820Z,9.35
2023-05-19T01:03:12.868Z,9.18
2023-05-19T01:05:44.790Z,8.20
2023-05-19T01:08:12.038Z,7.75
2023-05-19T01:10:38.873Z,6.72
2023-05-19T01:13:06.490Z,6.65
2023-05-19T01:15:36.661Z,8.07
2023-05-19T01:18:13.666Z,7.63
2023-05-19T01:20:46.987Z,9.07
2023-05-19T01:23:32.622Z,8.57
2023-05-19T01:25:59.501Z,8.60
2023-05-19T01:28:45.469Z,9.00
2023-05-19T01:31:12.929Z,6.72
2023-05-19T01:33:40.313Z,8.00
2023-05-19T01:36:08.221Z,9.20
2023-05-19T01:38:38.042Z,9.77
2023-05-19T01:41:06.201Z,13.50
2023-05-19T01:43:33.214Z,7.35
2023-05-19T01:46:00.509Z,9.02
2023-05-19T01:48:28.672Z,7.32
2023-05-19T01:50:57.359Z,9.77
2023-05-19T01:53:24.604Z,9.13
2023-05-19T01:55:52.675Z,8.93
2023-05-19T01:58:31.499Z,10.27
2023-05-19T02:01:04.244Z,10.02
2023-05-19T02:03:49.795Z,9.25
2023-05-19T02:06:16.692Z,10.80
2023-05-19T02:08:48.475Z,10.55
2023-05-19T02:11:19.862Z,7.63
2023-05-19T02:16:13.678Z,8.77
2023-05-19T02:18:45.435Z,8.68
2023-05-19T02:21:13.704Z,6.43
2023-05-19T02:23:42.023Z,7.88
2023-05-19T02:26:08.885Z,6.80
2023-05-19T02:28:36.747Z,7.55
2023-05-19T02:31:05.298Z,7.43
2023-05-19T02:33:32.475Z,7.07
2023-05-19T02:35:59.362Z,6.60
2023-05-19T02:38:26.473Z,6.93
2023-05-19T02:40:53.445Z,7.07
2023-05-19T02:43:20.294Z,6.63
2023-05-19T02:45:47.145Z,6.95
2023-05-19T02:48:14.021Z,7.00
2023-05-19T02:50:40.959Z,6.25
2023-05-19T02:53:07.878Z,5.90
2023-05-19T02:55:34.754Z,4.70
2023-05-19T02:58:01.864Z,6.18
2023-05-19T03:00:28.680Z,5.15
2023-05-19T03:02:55.897Z,4.45
2023-05-19T03:05:22.849Z,4.72
2023-05-19T03:07:49.676Z,5.50
2023-05-19T03:10:16.500Z,6.50
2023-05-19T03:12:43.426Z,5.57
2023-05-19T03:15:13.108Z,4.78
2023-05-19T03:17:40.916Z,6.65
2023-05-19T03:20:08.100Z,5.63
2023-05-19T03:22:34.996Z,5.32
2023-05-19T03:25:02.456Z,6.15
2023-05-19T03:27:29.536Z,7.65
2023-05-19T03:29:56.480Z,4.22
2023-05-19T03:32:23.377Z,4.75
2023-05-19T03:34:50.178Z,5.10
2023-05-19T03:37:17.028Z,7.75
2023-05-19T03:39:43.861Z,4.88
2023-05-19T03:42:10.861Z,4.47
2023-05-19T03:44:37.711Z,5.20
2023-05-19T03:47:04.744Z,4.85
2023-05-19T03:49:31.681Z,6.00
2023-05-19T03:51:58.492Z,6.03
2023-05-19T03:54:25.284Z,5.95
2023-05-19T03:56:52.181Z,4.65
2023-05-19T03:59:19.027Z,5.13
2023-05-19T04:01:46.530Z,5.15
2023-05-19T04:04:13.397Z,3.67
2023-05-19T04:06:40.320Z,5.35
2023-05-19T04:09:13.964Z,4.95
2023-05-19T04:11:41.089Z,4.25
2023-05-19T04:14:08.176Z,4.55
2023-05-19T04:16:35.305Z,5.00
2023-05-19T04:19:02.162Z,4.25
2023-05-19T04:21:28.993Z,5.40
2023-05-19T04:23:55.884Z,5.40
2023-05-19T04:26:25.027Z,5.32
2023-05-19T04:28:52.732Z,4.35
2023-05-19T04:31:21.737Z,4.00
2023-05-19T04:33:49.842Z,5.32
2023-05-19T04:36:20.821Z,3.53
2023-05-19T04:38:47.680Z,4.25
2023-05-19T04:41:16.522Z,3.83
2023-05-19T04:43:44.806Z,5.07
2023-05-19T04:46:13.898Z,5.00
2023-05-19T04:48:41.383Z,4.95
2023-05-19T04:51:08.461Z,3.72
2023-05-19T04:53:35.722Z,4.28
2023-05-19T04:56:02.582Z,6.00
2023-05-19T04:58:30.184Z,6.32
2023-05-19T05:00:58.726Z,4.43
2023-05-19T05:03:26.541Z,4.10
2023-05-19T05:05:53.552Z,5.68
2023-05-19T05:08:23.373Z,5.78
2023-05-19T05:10:52.591Z,4.72
2023-05-19T05:13:21.368Z,5.65
2023-05-19T05:15:48.767Z,3.72
2023-05-19T05:18:16.153Z,8.40
2023-05-19T05:20:43.294Z,6.00
2023-05-19T05:23:10.734Z,4.70
2023-05-19T05:25:38.314Z,4.13
2023-05-19T05:28:06.020Z,6.13
2023-05-19T05:30:33.901Z,5.18
2023-05-19T05:33:01.163Z,6.55
2023-05-19T05:35:28.273Z,5.18
2023-05-19T05:37:55.994Z,6.40
2023-05-19T05:40:22.875Z,3.47
2023-05-19T05:42:49.735Z,5.45
2023-05-19T05:45:16.678Z,3.65
2023-05-19T05:47:43.710Z,6.45
2023-05-19T05:50:10.881Z,5.00
2023-05-19T05:52:38.109Z,4.72
2023-05-19T05:55:05.502Z,4.45
2023-05-19T05:57:35.464Z,5.65
2023-05-19T06:00:02.627Z,5.78
2023-05-19T06:02:30.121Z,3.67
2023-05-19T06:04:57.090Z,5.93
2023-05-19T06:07:24.538Z,5.40
2023-05-19T06:09:51.743Z,4.70
2023-05-19T06:12:18.577Z,4.63
2023-05-19T06:14:45.410Z,5.13
2023-05-19T06:17:12.322Z,4.50
2023-05-19T06:19:39.214Z,5.32
2023-05-19T06:22:06.343Z,5.65
2023-05-19T06:24:33.240Z,3.97
2023-05-19T06:27:00.058Z,4.82
2023-05-19T06:29:26.962Z,4.40
2023-05-19T06:31:54.095Z,6.35
2023-05-19T06:34:21.289Z,5.70
2023-05-19T06:36:48.246Z,4.95
2023-05-19T06:39:15.094Z,5.60
2023-05-19T06:41:41.930Z,6.78
2023-05-19T06:44:11.485Z,4.57
2023-05-19T06:46:38.432Z,4.20
2023-05-19T06:49:05.284Z,4.13
2023-05-19T06:51:32.222Z,4.68
2023-05-19T06:53:59.059Z,4.75
2023-05-19T06:56:25.989Z,5.45
2023-05-19T06:58:52.854Z,6.65
2023-05-19T07:01:19.770Z,5.00
2023-05-19T07:03:46.936Z,5.40
2023-05-19T07:06:14.145Z,5.53
2023-05-19T07:08:40.999Z,5.15
2023-05-19T07:11:08.320Z,4.80
2023-05-19T07:13:35.265Z,4.03
2023-05-19T07:16:02.144Z,5.45
2023-05-19T07:18:31.975Z,4.97
2023-05-19T07:20:59.057Z,6.68
2023-05-19T07:23:26.150Z,4.88
2023-05-19T07:25:56.740Z,5.05
2023-05-19T07:28:23.721Z,6.10
2023-05-19T07:30:50.761Z,5.40
2023-05-19T07:33:17.742Z,6.47
2023-05-19T07:35:45.606Z,5.47
2023-05-19T07:38:12.700Z,4.35
2023-05-19T07:40:39.573Z,11.15
2023-05-19T07:43:06.443Z,11.98
2023-05-19T07:45:33.398Z,9.52
2023-05-19T07:48:00.271Z,10.80
2023-05-19T07:50:27.442Z,9.63
2023-05-19T07:52:54.336Z,11.63
2023-05-19T07:55:23.265Z,9.85
2023-05-19T07:57:51.011Z,11.93
2023-05-19T08:00:18.067Z,13.65
2023-05-19T08:02:45.378Z,10.95
2023-05-19T08:05:12.262Z,18.27
2023-05-19T08:07:39.162Z,14.70
2023-05-19T08:10:06.283Z,16.70
2023-05-19T08:12:33.123Z,17.85
2023-05-19T08:15:01.427Z,16.63
2023-05-19T08:17:28.777Z,13.80
2023-05-19T08:19:55.687Z,23.52
2023-05-19T08:22:22.570Z,23.27
2023-05-19T08:24:52.092Z,17.38
2023-05-19T08:27:19.029Z,20.00
2023-05-19T08:29:45.970Z,16.65
2023-05-19T08:32:13.509Z,11.85
2023-05-19T08:34:41.299Z,9.07
2023-05-19T08:37:08.247Z,8.07
2023-05-19T08:39:35.086Z,7.30
2023-05-19T08:42:02.548Z,5.30
2023-05-19T08:44:31.013Z,6.53
2023-05-19T08:47:00.767Z,5.80
2023-05-19T08:49:31.037Z,7.38
2023-05-19T08:52:06.432Z,6.43
2023-05-19T08:54:38.480Z,8.40
2023-05-19T08:57:05.884Z,5.68
2023-05-19T08:59:33.335Z,5.47
2023-05-19T09:02:00.272Z,6.38
2023-05-19T09:04:29.898Z,5.95
2023-05-19T09:06:58.925Z,5.30
2023-05-19T09:09:26.093Z,7.32
2023-05-19T09:11:53.007Z,8.20
2023-05-19T09:14:19.864Z,7.40
2023-05-19T09:16:51.086Z,6.03
2023-05-19T09:21:45.891Z,9.07
2023-05-19T09:24:12.952Z,6.80
2023-05-19T09:26:40.990Z,6.40
2023-05-19T09:29:14.426Z,5.15
2023-05-19T09:31:48.845Z,6.65
2023-05-19T09:34:16.028Z,4.75
2023-05-19T09:36:43.283Z,5.97
2023-05-19T09:39:16.711Z,6.93
2023-05-19T09:41:43.678Z,8.23
2023-05-19T09:44:14.350Z,6.95
2023-05-19T09:46:47.586Z,7.93
2023-05-19T09:49:18.658Z,7.68
2023-05-19T09:54:16.520Z,8.73
2023-05-19T09:56:43.423Z,6.47
2023-05-19T09:59:10.682Z,8.35
2023-05-19T10:01:40.471Z,8.55
2023-05-19T10:04:07.489Z,12.52
2023-05-19T10:06:34.734Z,10.77
2023-05-19T10:09:02.452Z,11.32
2023-05-19T10:11:30.328Z,10.13
2023-05-19T10:13:57.538Z,9.60
2023-05-19T10:16:26.766Z,14.75
2023-05-19T10:18:54.943Z,15.95
2023-05-19T10:21:21.779Z,13.60
2023-05-19T10:23:48.655Z,10.13
2023-05-19T10:26:16.168Z,10.05
2023-05-19T10:28:43.757Z,9.07
2023-05-19T10:31:12.257Z,10.18
2023-05-19T10:33:51.487Z,15.07
2023-05-19T10:36:27.197Z,9.88
2023-05-19T10:39:00.724Z,11.25
2023-05-19T10:41:27.681Z,9.55
2023-05-19T10:43:59.211Z,8.82
2023-05-19T10:46:29.519Z,11.32
2023-05-19T10:48:56.479Z,9.77
2023-05-19T10:51:33.435Z,8.45
2023-05-19T10:54:26.165Z,10.10
2023-05-19T10:56:56.708Z,7.93
2023-05-19T10:59:34.646Z,12.30
2023-05-19T11:02:05.399Z,10.93
2023-05-19T11:04:51.305Z,11.13
2023-05-19T11:07:22.553Z,9.55
2023-05-19T11:09:52.741Z,9.40
2023-05-19T11:12:24.771Z,9.27
2023-05-19T11:14:55.077Z,11.45
2023-05-19T11:17:23.779Z,8.88
2023-05-19T11:19:57.687Z,8.55
2023-05-19T11:22:26.162Z,7.80
2023-05-19T11:24:56.076Z,9.75
2023-05-19T11:27:23.003Z,8.10
2023-05-19T11:29:50.207Z,10.90
2023-05-19T11:32:17.507Z,11.60
2023-05-19T11:34:44.868Z,7.32
2023-05-19T11:37:12.288Z,9.43
2023-05-19T11:39:39.409Z,11.45
2023-05-19T11:42:06.587Z,7.15
2023-05-19T11:44:33.435Z,11.02
2023-05-19T11:47:00.302Z,9.68
2023-05-19T11:49:30.737Z,8.25
2023-05-19T11:51:57.797Z,7.45
2023-05-19T11:54:29.366Z,9.38
2023-05-19T11:56:56.751Z,9.20
2023-05-19T11:59:32.260Z,6.88
2023-05-19T12:02:25.073Z,7.05
2023-05-19T12:04:52.493Z,10.27
2023-05-19T12:07:20.417Z,12.07
2023-05-19T12:09:47.510Z,10.40
2023-05-19T12:12:18.836Z,9.35
2023-05-19T12:14:52.013Z,13.98
2023-05-19T12:17:25.966Z,15.82
2023-05-19T12:19:52.974Z,11.32
2023-05-19T12:22:19.946Z,10.13
2023-05-19T12:24:47.343Z,12.95
2023-05-19T12:27:14.327Z,9.50
2023-05-19T12:29:41.219Z,10.30
2023-05-19T12:32:08.598Z,10.82
2023-05-19T12:34:36.351Z,8.93
2023-05-19T12:37:04.381Z,7.88
2023-05-19T12:39:31.562Z,7.65
2023-05-19T12:42:04.914Z,10.02
2023-05-19T12:44:36.584Z,10.63
2023-05-19T12:47:05.050Z,7.50
2023-05-19T12:49:32.306Z,6.57
2023-05-19T12:52:02.875Z,6.53
2023-05-19T12:54:34.476Z,8.10
2023-05-19T12:57:01.355Z,6.75
2023-05-19T12:59:38.361Z,8.23
2023-05-19T13:02:06.499Z,7.25
2023-05-19T13:04:33.511Z,7.03
2023-05-19T13:07:00.339Z,6.90
2023-05-19T13:09:27.986Z,7.95
2023-05-19T13:11:54.887Z,7.50
2023-05-19T13:14:21.866Z,7.72
2023-05-19T13:16:48.901Z,7.43
2023-05-19T13:19:25.324Z,7.53
2023-05-19T13:21:52.915Z,8.68
2023-05-19T13:24:19.780Z,8.65
2023-05-19T13:26:48.136Z,8.70
2023-05-19T13:29:15.250Z,9.07
2023-05-19T13:31:42.223Z,8.80
2023-05-19T13:34:09.145Z,6.88
2023-05-19T13:36:36.653Z,7.97
2023-05-19T13:39:03.637Z,7.32
2023-05-19T13:41:30.526Z,6.30
2023-05-19T13:43:58.967Z,6.93
2023-05-19T13:46:36.769Z,6.97
2023-05-19T13:49:11.415Z,7.28
2023-05-19T13:51:39.689Z,6.30
2023-05-19T13:54:06.566Z,6.30
2023-05-19T13:56:33.498Z,6.97
2023-05-19T13:59:00.404Z,6.75
2023-05-19T14:01:27.237Z,8.10
2023-05-19T14:03:54.206Z,8.98
2023-05-19T14:06:21.129Z,6.82
2023-05-19T14:08:47.997Z,6.68
2023-05-19T14:11:19.595Z,9.70
2023-05-19T14:13:49.129Z,8.00
2023-05-19T14:16:17.806Z,6.28
2023-05-19T14:18:44.744Z,6.35
2023-05-19T14:21:11.607Z,6.60
2023-05-19T14:23:38.454Z,8.50
2023-05-19T14:26:05.382Z,9.27
2023-05-19T14:28:32.218Z,7.63
2023-05-19T14:30:59.068Z,6.75
2023-05-19T14:33:25.988Z,7.00
2023-05-19T14:35:52.992Z,10.35
2023-05-19T14:38:19.856Z,7.60
2023-05-19T14:40:48.471Z,8.68
2023-05-19T14:43:15.589Z,6.47
2023-05-19T14:45:42.674Z,6.97
2023-05-19T14:48:11.969Z,6.40
2023-05-19T14:50:39.104Z,7.07
2023-05-19T14:53:05.932Z,9.35
2023-05-19T14:55:32.829Z,8.38
2023-05-19T14:57:59.697Z,7.13
2023-05-19T15:00:27.023Z,8.18
2023-05-19T15:02:54.331Z,7.28
2023-05-19T15:05:23.009Z,7.40
2023-05-19T15:07:50.339Z,7.05
2023-05-19T15:10:23.282Z,9.00
2023-05-19T15:12:50.150Z,9.70
2023-05-19T15:15:17.574Z,8.57
2023-05-19T15:17:46.000Z,7.55
2023-05-19T15:20:12.873Z,6.97
2023-05-19T15:22:39.739Z,8.75
2023-05-19T15:25:06.997Z,6.22
2023-05-19T15:27:34.934Z,6.88
2023-05-19T15:30:02.215Z,6.47
2023-05-19T15:32:29.325Z,8.05
2023-05-19T15:34:56.229Z,7.32
2023-05-19T15:37:23.073Z,7.65
2023-05-19T15:39:49.999Z,6.63
2023-05-19T15:42:16.853Z,7.70
2023-05-19T15:44:46.045Z,8.45
2023-05-19T15:47:12.977Z,7.72
2023-05-19T15:49:39.829Z,6.45
2023-05-19T15:52:06.827Z,7.72
2023-05-19T15:54:33.670Z,7.03
2023-05-19T15:57:00.578Z,8.15
2023-05-19T15:59:27.473Z,6.72
2023-05-19T16:01:54.506Z,6.07
2023-05-19T16:04:21.748Z,7.60
2023-05-19T16:06:48.714Z,9.88
2023-05-19T16:09:15.621Z,6.78
2023-05-19T16:11:42.448Z,6.13
2023-05-19T16:14:09.303Z,7.25
2023-05-19T16:16:36.188Z,7.25
2023-05-19T16:19:03.102Z,7.93
2023-05-19T16:21:30.068Z,6.82
2023-05-19T16:23:56.953Z,6.45
2023-05-19T16:26:23.803Z,6.43
2023-05-19T16:28:50.630Z,6.75
2023-05-19T16:31:17.480Z,6.90
2023-05-19T16:33:44.378Z,7.07
2023-05-19T16:36:11.218Z,7.13
2023-05-19T16:38:38.152Z,7.50
2023-05-19T16:41:06.378Z,9.25
2023-05-19T16:43:34.028Z,6.32
2023-05-19T16:46:03.526Z,7.32
2023-05-19T16:48:30.530Z,6.57
2023-05-19T16:50:57.534Z,9.23
2023-05-19T16:53:24.432Z,7.93
2023-05-19T16:55:51.383Z,6.97
2023-05-19T16:58:18.265Z,7.68
2023-05-19T17:00:45.147Z,8.73
2023-05-19T17:03:12.603Z,7.47
2023-05-19T17:05:41.971Z,8.95
2023-05-19T17:08:09.009Z,6.60
2023-05-19T17:10:36.161Z,9.88
2023-05-19T17:13:03.028Z,7.35
2023-05-19T17:15:30.379Z,6.82
2023-05-19T17:17:57.344Z,7.82
2023-05-19T17:20:24.201Z,7.78
2023-05-19T17:22:51.116Z,6.82
2023-05-19T17:25:18.105Z,7.97
2023-05-19T17:27:44.963Z,9.00
2023-05-19T17:30:12.824Z,6.68
2023-05-19T17:32:39.893Z,7.13
2023-05-19T17:35:07.202Z,8.63
2023-05-19T17:37:34.072Z,9.50
2023-05-19T17:40:01.089Z,6.47
2023-05-19T17:42:29.198Z,8.02
2023-05-19T17:44:56.085Z,8.35
2023-05-19T17:47:23.001Z,7.20
2023-05-19T17:49:52.965Z,8.07
2023-05-19T17:52:20.638Z,7.95
2023-05-19T17:54:47.783Z,7.55
2023-05-19T17:57:15.967Z,8.60
2023-05-19T17:59:42.850Z,7.60
2023-05-19T18:02:10.247Z,9.52
2023-05-19T18:04:37.353Z,8.18
2023-05-19T18:07:05.024Z,7.43
2023-05-19T18:09:33.283Z,9.95
2023-05-19T18:12:02.343Z,6.80
2023-05-19T18:14:29.291Z,9.65
2023-05-19T18:16:56.176Z,7.78
2023-05-19T18:19:23.115Z,8.07
2023-05-19T18:21:49.996Z,7.50
2023-05-19T18:24:16.899Z,7.78
2023-05-19T18:26:43.799Z,9.38
2023-05-19T18:29:14.697Z,8.18
2023-05-19T18:31:41.737Z,7.88
2023-05-19T18:34:08.636Z,6.88
2023-05-19T18:36:35.722Z,8.63
2023-05-19T18:39:02.701Z,9.40
2023-05-19T18:41:29.725Z,7.57
2023-05-19T18:43:56.674Z,5.88
2023-05-19T18:46:23.658Z,7.53
2023-05-19T18:48:50.810Z,9.23
2023-05-19T18:51:18.704Z,9.10
2023-05-19T18:53:48.677Z,9.77
2023-05-19T18:56:22.946Z,7.97
2023-05-19T18:58:49.997Z,9.15
2023-05-19T19:01:16.887Z,7.30
2023-05-19T19:03:44.974Z,7.68
2023-05-19T19:06:11.878Z,7.65
2023-05-19T19:08:38.711Z,7.63
2023-05-19T19:11:09.337Z,7.95
2023-05-19T19:13:36.383Z,7.32
2023-05-19T19:16:03.544Z,8.50
2023-05-19T19:18:30.471Z,8.70
2023-05-19T19:20:57.823Z,7.55
2023-05-19T19:23:24.720Z,7.15
2023-05-19T19:25:51.633Z,7.60
2023-05-19T19:28:18.581Z,7.97
2023-05-19T19:30:46.226Z,8.60
2023-05-19T19:33:13.131Z,11.23
2023-05-19T19:35:40.044Z,8.90
2023-05-19T19:38:07.090Z,8.45
2023-05-19T19:40:34.216Z,9.50
2023-05-19T19:43:01.388Z,9.20
2023-05-19T19:45:28.270Z,8.27
2023-05-19T19:47:55.202Z,9.98
2023-05-19T19:50:22.093Z,10.90
2023-05-19T19:52:49.032Z,11.20
2023-05-19T19:55:16.022Z,10.27
2023-05-19T19:57:45.032Z,9.63
2023-05-19T20:00:12.150Z,10.75
2023-05-19T20:02:55.307Z,10.50
2023-05-19T20:05:26.768Z,11.60
2023-05-19T20:07:53.700Z,11.63
2023-05-19T20:10:20.514Z,10.73
2023-05-19T20:12:48.019Z,11.68
2023-05-19T20:15:15.099Z,10.88
2023-05-19T20:17:41.942Z,10.43
2023-05-19T20:20:10.965Z,10.05
2023-05-19T20:22:38.948Z,11.38
2023-05-19T20:25:06.096Z,10.70
2023-05-19T20:27:33.031Z,11.70
2023-05-19T20:29:59.941Z,12.63
2023-05-19T20:32:26.879Z,9.80
2023-05-19T20:34:53.747Z,12.00
2023-05-19T20:37:22.227Z,10.10
2023-05-19T20:39:49.176Z,14.95
2023-05-19T20:42:16.103Z,9.75
2023-05-19T20:44:43.022Z,10.35
2023-05-19T20:47:10.553Z,9.88
2023-05-19T20:49:37.456Z,10.93
2023-05-19T20:52:04.474Z,11.57
2023-05-19T20:54:31.371Z,11.02
2023-05-19T20:56:58.223Z,8.63
2023-05-19T20:59:25.185Z,9.52
2023-05-19T21:01:52.042Z,14.63
2023-05-19T21:04:19.017Z,12.60
2023-05-19T21:06:45.962Z,13.20
2023-05-19T21:09:12.905Z,13.80
2023-05-19T21:11:39.743Z,9.10
2023-05-19T21:14:07.684Z,11.77
2023-05-19T21:16:38.730Z,10.38
2023-05-19T21:21:33.910Z,11.10
2023-05-19T21:24:00.959Z,9.85
2023-05-19T21:26:27.879Z,9.85
2023-05-19T21:28:54.885Z,9.02
2023-05-19T21:31:21.789Z,8.60
2023-05-19T21:33:48.713Z,9.50
2023-05-19T21:36:16.507Z,7.80
2023-05-19T21:38:43.364Z,8.85
2023-05-19T21:41:10.334Z,8.10
2023-05-19T21:43:37.308Z,7.80
2023-05-19T21:46:04.255Z,9.38
2023-05-19T21:48:31.156Z,10.10
2023-05-19T21:50:58.037Z,7.35
2023-05-19T21:53:25.039Z,7.28
2023-05-19T21:55:52.000Z,10.43
2023-05-19T21:58:18.993Z,11.20
2023-05-19T22:00:49.627Z,10.20
2023-05-19T22:03:16.826Z,11.77
2023-05-19T22:05:48.242Z,12.95
2023-05-19T22:08:15.111Z,12.68
2023-05-19T22:10:41.986Z,11.00
2023-05-19T22:13:08.805Z,13.10
2023-05-19T22:15:35.609Z,11.38
2023-05-19T22:18:02.517Z,12.93
2023-05-19T22:20:29.363Z,14.00
2023-05-19T22:22:59.443Z,11.60
2023-05-19T22:25:26.426Z,10.95
2023-05-19T22:27:53.540Z,11.57
2023-05-19T22:30:20.561Z,13.30
2023-05-19T22:32:47.512Z,12.85
2023-05-19T22:35:14.365Z,10.82
2023-05-19T22:37:41.188Z,14.40
2023-05-19T22:40:08.325Z,13.18
2023-05-19T22:42:35.227Z,14.93
2023-05-19T22:45:02.141Z,19.30
2023-05-19T22:47:29.840Z,15.90
2023-05-19T22:49:57.227Z,14.57
2023-05-19T22:52:24.293Z,15.38
2023-05-19T22:54:51.183Z,13.50
2023-05-19T22:57:19.390Z,15.13
2023-05-19T22:59:46.332Z,11.52
2023-05-19T23:02:13.225Z,11.40
2023-05-19T23:04:40.193Z,9.50
2023-05-19T23:07:07.091Z,11.65
2023-05-19T23:09:34.008Z,12.05
2023-05-19T23:12:01.023Z,13.05
2023-05-19T23:14:28.196Z,10.30
2023-05-19T23:16:55.100Z,10.18
2023-05-19T23:19:22.353Z,9.77
2023-05-19T23:21:49.349Z,10.48
2023-05-19T23:24:16.439Z,9.20
2023-05-19T23:26:46.143Z,14.70
2023-05-19T23:29:13.708Z,10.43
2023-05-19T23:31:41.156Z,14.07
2023-05-19T23:34:08.226Z,14.00
2023-05-19T23:36:35.165Z,10.82
2023-05-19T23:39:02.116Z,10.93
2023-05-19T23:41:28.975Z,14.98
2023-05-19T23:43:55.862Z,12.38
2023-05-19T23:46:22.802Z,10.40
2023-05-19T23:48:49.766Z,11.85
2023-05-19T23:51:16.612Z,11.07
2023-05-19T23:53:43.438Z,10.40
2023-05-19T23:56:10.635Z,11.07
2023-05-19T23:58:37.518Z,9.10
